Terminal Aerodrome Forecast
Issued by NWS

Home | Current Version | Previous Version | Text Only | Print | Product List | Glossary On
Versions: 1 2 3 4 5 6 7 8 9 10 11 12 13 14 15 16 17 18 19 20 21 22 23
000
FTUS45 KVEF 310500
TAFLAS
TAF
KLAS 310529Z 3106/0106 21008KT P6SM FEW150 BKN220
     FM311500 VRB06KT P6SM SCT150 SCT250
     FM312000 14011KT P6SM SCT150 SCT250
     FM312100 19015G24KT P6SM FEW150 BKN250
     FM010100 20011KT P6SM FEW150 BKN250=

USA.gov is the U.S. government's official web portal to all federal, state and local government web resources and services.